Time;durP1;ratioP1;P1;durP2;ratioP2;P2;SDS_P1;SDS_P2;PMS_P1;PMS_P2;Temp;Humidity;BMP_temperature;BMP_pressure;BME280_temperature;BME280_humidity;BME280_pressure;Samples;Min_cycle;Max_cycle;Signal;HPM_P1;HPM_P2
2023/02/25 00:01:10;;;;;;;14.40;2.30;;;;;;;4.35;100.00;98933.94;5091702;29;20426;-71
2023/02/25 00:03:41;;;;;;;9.57;2.20;;;;;;;4.35;100.00;98938.25;5104719;29;20397;-71
2023/02/25 00:06:13;;;;;;;14.65;2.15;;;;;;;4.42;100.00;98937.97;5107202;29;20028;-71
2023/02/25 00:08:44;;;;;;;14.65;1.92;;;;;;;4.42;100.00;98937.97;5108006;29;20031;-71
2023/02/25 00:11:16;;;;;;;11.30;2.03;;;;;;;4.42;100.00;98952.63;5098509;29;20027;-72
2023/02/25 00:13:47;;;;;;;10.65;2.30;;;;;;;4.34;100.00;98945.19;5074470;29;20562;-71
2023/02/25 00:16:18;;;;;;;16.80;2.38;;;;;;;4.34;100.00;98945.19;5098400;29;20043;-71
2023/02/25 00:18:53;;;;;;;13.35;2.05;;;;;;;4.36;100.00;98947.69;5109540;29;20074;-71
2023/02/25 00:21:24;;;;;;;14.73;1.95;;;;;;;4.38;100.00;98941.56;5095238;29;20055;-71
2023/02/25 00:23:55;;;;;;;13.00;1.85;;;;;;;4.34;100.00;98946.91;5093383;29;20028;-71
2023/02/25 00:26:25;;;;;;;13.30;1.77;;;;;;;4.23;100.00;98943.84;5102386;29;20097;-71
2023/02/25 00:28:56;;;;;;;13.85;1.70;;;;;;;4.37;100.00;98944.19;5099198;29;20519;-71
2023/02/25 00:31:26;;;;;;;10.38;1.77;;;;;;;4.26;100.00;98951.53;5095131;29;20082;-71
2023/02/25 00:33:57;;;;;;;10.65;1.88;;;;;;;4.31;100.00;98949.59;5101482;29;20307;-71
2023/02/25 00:36:27;;;;;;;11.70;1.95;;;;;;;4.28;100.00;98944.56;5104756;29;20027;-71
2023/02/25 00:38:58;;;;;;;13.23;2.38;;;;;;;4.28;100.00;98953.13;5105898;29;20086;-71
2023/02/25 00:41:29;;;;;;;8.35;2.00;;;;;;;4.27;100.00;98950.63;5100441;29;20059;-70
2023/02/25 00:44:01;;;;;;;11.02;1.58;;;;;;;4.24;100.00;98948.97;5078092;29;20317;-71
2023/02/25 00:46:32;;;;;;;6.10;1.75;;;;;;;4.27;100.00;98958.38;5099716;29;20424;-71
2023/02/25 00:49:03;;;;;;;8.07;1.40;;;;;;;4.30;100.00;98961.66;5088938;29;20032;-71
2023/02/25 00:51:33;;;;;;;16.33;2.25;;;;;;;4.28;100.00;98963.47;5092473;28;20394;-71
2023/02/25 00:54:03;;;;;;;10.38;1.50;;;;;;;4.36;100.00;98958.88;5097475;29;20485;-71
2023/02/25 00:56:34;;;;;;;14.57;2.38;;;;;;;4.39;100.00;98961.34;5105857;29;20061;-71
2023/02/25 00:59:04;;;;;;;20.02;2.25;;;;;;;4.41;100.00;98962.13;5102995;29;20063;-71
2023/02/25 01:01:37;;;;;;;8.63;1.25;;;;;;;4.38;100.00;98967.44;5094598;29;20569;-71
2023/02/25 01:04:08;;;;;;;11.43;2.33;;;;;;;4.39;100.00;98969.09;5120058;29;20064;-71
2023/02/25 01:06:38;;;;;;;6.35;1.35;;;;;;;4.42;100.00;98963.81;5113912;29;20066;-71
2023/02/25 01:09:12;;;;;;;12.18;1.70;;;;;;;4.51;100.00;98979.00;5098216;29;20036;-71
2023/02/25 01:11:45;;;;;;;9.65;1.20;;;;;;;4.43;100.00;98970.69;5100783;29;20043;-72
2023/02/25 01:14:19;;;;;;;14.18;1.58;;;;;;;4.48;100.00;98978.28;5103572;29;20414;-71
2023/02/25 01:16:51;;;;;;;6.72;1.08;;;;;;;4.45;100.00;98974.03;5088840;29;20043;-73
2023/02/25 01:19:24;;;;;;;7.78;1.30;;;;;;;4.53;100.00;98961.69;5104256;29;20131;-72
2023/02/25 01:21:57;;;;;;;11.70;1.27;;;;;;;4.54;100.00;98971.13;5100078;29;20031;-71
2023/02/25 01:24:30;;;;;;;9.15;1.45;;;;;;;4.54;100.00;98981.47;5097205;29;20469;-73
2023/02/25 01:27:02;;;;;;;9.30;1.45;;;;;;;4.56;100.00;98984.00;5093812;29;20043;-71
2023/02/25 01:29:38;;;;;;;14.57;1.52;;;;;;;4.45;100.00;98986.16;5090744;29;20035;-71
2023/02/25 01:32:12;;;;;;;10.15;1.88;;;;;;;4.54;100.00;98984.06;5098779;29;20035;-71
2023/02/25 01:34:42;;;;;;;11.80;1.90;;;;;;;4.56;100.00;98984.84;5101085;29;20178;-71
2023/02/25 01:37:14;;;;;;;18.13;2.10;;;;;;;4.49;100.00;98987.72;5099753;29;20115;-70
2023/02/25 01:39:44;;;;;;;14.48;1.60;;;;;;;4.57;100.00;98998.59;5096001;29;20032;-71
2023/02/25 01:42:16;;;;;;;10.75;1.30;;;;;;;4.58;100.00;98997.72;5089812;29;20382;-71
2023/02/25 01:45:11;;;;;;;8.65;1.85;;;;;;;4.49;100.00;98995.47;5096557;29;20054;-71
2023/02/25 01:47:43;;;;;;;9.65;1.52;;;;;;;4.50;100.00;99003.16;5088401;29;20026;-71
2023/02/25 01:50:14;;;;;;;4.78;0.82;;;;;;;4.49;100.00;99009.22;5093645;29;20028;-70
2023/02/25 01:52:44;;;;;;;5.15;0.82;;;;;;;4.45;100.00;99015.41;5089405;29;20039;-72
2023/02/25 01:55:15;;;;;;;6.03;0.80;;;;;;;4.44;100.00;99018.91;5091017;29;20139;-71
2023/02/25 01:57:45;;;;;;;5.95;0.75;;;;;;;4.38;100.00;99024.31;5101203;29;20035;-70
2023/02/25 02:00:16;;;;;;;3.22;0.60;;;;;;;4.36;100.00;99026.09;5088611;29;20032;-71
2023/02/25 02:02:48;;;;;;;7.00;0.80;;;;;;;4.33;100.00;99031.34;5098856;29;20075;-72
2023/02/25 02:05:20;;;;;;;4.03;0.73;;;;;;;4.30;100.00;99039.22;5101421;29;20058;-71
2023/02/25 02:07:50;;;;;;;3.35;0.93;;;;;;;4.29;100.00;99036.72;5098544;29;20028;-69
2023/02/25 02:10:20;;;;;;;2.42;0.30;;;;;;;4.27;100.00;99039.34;5099222;29;20367;-71
2023/02/25 02:12:51;;;;;;;4.78;0.70;;;;;;;4.21;100.00;99043.88;5091036;29;20050;-71
2023/02/25 02:15:21;;;;;;;3.00;0.70;;;;;;;4.16;100.00;99045.78;5085275;29;20030;-71
2023/02/25 02:17:58;;;;;;;5.05;0.47;;;;;;;4.16;100.00;99038.88;5091100;29;20118;-71
2023/02/25 02:21:08;;;;;;;1.15;0.30;;;;;;;4.12;99.91;99042.44;5089789;29;20032;-71
2023/02/25 02:23:59;;;;;;;1.40;0.30;;;;;;;4.09;98.50;99041.75;5092119;29;20082;-71
2023/02/25 02:26:50;;;;;;;3.80;0.40;;;;;;;4.13;97.81;99043.31;5090482;29;20127;-71
2023/02/25 02:29:44;;;;;;;3.63;0.65;;;;;;;4.13;98.31;99054.47;5104679;29;20381;-71
2023/02/25 02:32:34;;;;;;;1.00;0.25;;;;;;;4.16;97.84;99038.88;5100791;29;20492;-71
2023/02/25 02:35:29;;;;;;;2.53;0.93;;;;;;;4.21;97.12;99049.91;5095386;29;20391;-71
2023/02/25 02:38:14;;;;;;;1.40;0.40;;;;;;;4.17;96.82;99047.47;5105491;29;20038;-71
2023/02/25 02:41:09;;;;;;;1.65;0.30;;;;;;;4.21;97.13;99055.09;5104468;29;20031;-72
2023/02/25 02:44:01;;;;;;;1.25;0.20;;;;;;;4.19;96.50;99054.28;5091570;29;20328;-72
2023/02/25 02:46:44;;;;;;;2.22;0.40;;;;;;;4.17;97.15;99057.81;5088149;29;20097;-71
2023/02/25 02:49:25;;;;;;;3.45;0.45;;;;;;;4.18;97.46;99057.78;5094938;29;20585;-70
2023/02/25 02:52:04;;;;;;;1.60;0.63;;;;;;;4.18;97.42;99060.38;5094539;29;20031;-71
2023/02/25 02:54:38;;;;;;;3.38;0.40;;;;;;;4.12;98.26;99050.22;5092321;29;20023;-71
2023/02/25 02:57:10;;;;;;;2.08;0.38;;;;;;;4.17;99.04;99068.16;5096325;29;20083;-73
2023/02/25 02:59:46;;;;;;;1.45;0.60;;;;;;;4.18;98.85;99073.28;5100925;29;20486;-71
2023/02/25 03:02:22;;;;;;;2.00;0.60;;;;;;;4.19;99.81;99069.81;5102038;29;20028;-71
2023/02/25 03:04:54;;;;;;;;;;;;;;;4.17;100.00;99075.91;5107795;29;20039;-72
2023/02/25 03:07:26;;;;;;;1.50;0.47;;;;;;;4.10;100.00;99079.59;5108063;29;19923;-72
2023/02/25 03:10:00;;;;;;;3.70;0.50;;;;;;;4.13;100.00;99085.50;5111999;29;20031;-71
2023/02/25 03:12:32;;;;;;;3.15;0.57;;;;;;;4.06;100.00;99086.63;5096382;29;20035;-71
2023/02/25 03:15:02;;;;;;;4.25;0.77;;;;;;;4.10;100.00;99089.94;5091993;29;20066;-72
2023/02/25 03:17:41;;;;;;;1.50;0.43;;;;;;;4.11;100.00;99095.03;5094724;29;20039;-71
2023/02/25 03:20:50;;;;;;;1.75;0.55;;;;;;;3.98;100.00;99101.50;5110218;29;20027;-71
2023/02/25 03:23:27;;;;;;;6.80;0.60;;;;;;;3.88;100.00;99096.69;5052609;29;20048;-73
2023/02/25 03:26:26;;;;;;;2.58;0.52;;;;;;;3.73;100.00;99110.09;5049214;29;20043;-72
2023/02/25 03:28:57;;;;;;;3.22;0.60;;;;;;;3.69;100.00;99106.78;5087226;29;20055;-72
2023/02/25 03:31:44;;;;;;;5.47;0.98;;;;;;;3.67;100.00;99107.72;5081278;29;20044;-71
2023/02/25 03:34:19;;;;;;;1.65;0.70;;;;;;;3.67;100.00;99118.06;5110549;29;20031;-71
2023/02/25 03:36:58;;;;;;;2.75;0.68;;;;;;;3.61;100.00;99113.09;5103268;29;20398;-71
2023/02/25 03:39:34;;;;;;;6.22;0.60;;;;;;;3.66;100.00;99119.81;5109143;29;20090;-72
2023/02/25 03:42:11;;;;;;;3.42;0.60;;;;;;;3.65;100.00;99118.09;5101227;29;20038;-71
2023/02/25 03:44:49;;;;;;;5.47;0.73;;;;;;;3.62;100.00;99128.53;5090931;29;20098;-72
2023/02/25 03:47:22;;;;;;;5.75;0.70;;;;;;;3.67;100.00;99125.81;5090935;29;20144;-72
2023/02/25 03:50:01;;;;;;;2.63;0.68;;;;;;;3.72;100.00;99139.41;5107535;29;20031;-71
2023/02/25 03:52:32;;;;;;;3.20;0.45;;;;;;;3.67;100.00;99131.81;5096146;29;20209;-73
2023/02/25 03:55:03;;;;;;;4.07;0.70;;;;;;;3.72;100.00;99140.25;5097187;29;20103;-71
2023/02/25 03:57:40;;;;;;;4.15;0.70;;;;;;;3.75;100.00;99144.50;5099514;29;20421;-72
2023/02/25 04:00:18;;;;;;;7.20;1.00;;;;;;;3.77;100.00;99143.53;5106719;29;20020;-71
2023/02/25 04:02:48;;;;;;;3.55;0.60;;;;;;;3.75;100.00;99158.25;5099542;29;20032;-72
2023/02/25 04:05:21;;;;;;;5.20;0.70;;;;;;;3.77;100.00;99151.28;5108821;29;20525;-71
2023/02/25 04:07:51;;;;;;;2.20;0.40;;;;;;;3.76;100.00;99167.69;5107064;29;20426;-71
2023/02/25 04:10:21;;;;;;;1.95;0.70;;;;;;;3.78;100.00;99160.72;5113868;28;20062;-70
2023/02/25 04:12:52;;;;;;;3.72;0.75;;;;;;;3.80;100.00;99174.44;5094017;29;20039;-71
2023/02/25 04:15:22;;;;;;;5.15;0.85;;;;;;;3.83;100.00;99174.38;5089099;29;20086;-72
2023/02/25 04:17:52;;;;;;;2.42;0.57;;;;;;;3.82;100.00;99175.22;5093132;29;20393;-71
2023/02/25 04:20:22;;;;;;;5.47;0.80;;;;;;;3.83;100.00;99174.38;5108725;29;20485;-72
2023/02/25 04:22:53;;;;;;;3.30;0.50;;;;;;;3.82;100.00;99172.66;5093023;29;20118;-71
2023/02/25 04:25:23;;;;;;;3.05;0.85;;;;;;;3.74;98.63;99178.94;5095099;29;20039;-71
2023/02/25 04:27:53;;;;;;;2.95;0.82;;;;;;;3.76;98.57;99183.19;5098762;29;20063;-71
2023/02/25 04:30:24;;;;;;;1.65;0.70;;;;;;;3.79;98.29;99183.09;5109419;29;20461;-71
2023/02/25 04:32:54;;;;;;;4.40;1.00;;;;;;;3.80;97.48;99187.34;5101455;29;20505;-71
2023/02/25 04:35:24;;;;;;;3.08;0.70;;;;;;;3.78;97.43;99188.31;5117962;29;20432;-71
2023/02/25 04:37:55;;;;;;;1.67;0.57;;;;;;;3.73;97.05;99187.59;5100570;29;20032;-71
2023/02/25 04:40:25;;;;;;;3.85;0.70;;;;;;;3.77;97.51;99194.38;5108902;29;20027;-72
2023/02/25 04:42:55;;;;;;;4.38;0.77;;;;;;;3.81;97.16;99191.63;5088879;29;20036;-71
2023/02/25 04:45:26;;;;;;;2.95;0.60;;;;;;;3.80;96.57;99195.09;5091554;29;20078;-72
2023/02/25 04:47:56;;;;;;;2.85;0.55;;;;;;;3.80;96.17;99191.69;5093209;29;20529;-71
2023/02/25 04:50:27;;;;;;;1.30;0.57;;;;;;;3.76;96.43;99203.84;5108968;29;20027;-71
2023/02/25 04:52:59;;;;;;;2.45;0.57;;;;;;;3.81;95.52;99204.53;5095136;29;20035;-72
2023/02/25 04:55:29;;;;;;;2.00;0.60;;;;;;;3.78;95.21;99198.66;5096635;29;20125;-71
2023/02/25 04:57:59;;;;;;;4.35;0.73;;;;;;;3.77;95.82;99202.97;5099975;29;20032;-71
2023/02/25 05:00:30;;;;;;;3.67;0.65;;;;;;;3.79;95.04;99203.75;5108033;29;20034;-72
2023/02/25 05:03:00;;;;;;;1.73;0.60;;;;;;;3.67;93.75;99206.72;5101719;29;20363;-71
2023/02/25 05:05:30;;;;;;;2.45;0.80;;;;;;;3.60;93.84;99209.53;5107786;29;20023;-71
2023/02/25 05:08:00;;;;;;;1.52;0.50;;;;;;;3.63;94.27;99212.84;5109209;29;20120;-71
2023/02/25 05:10:31;;;;;;;6.25;0.93;;;;;;;3.58;94.24;99213.91;5108197;29;20470;-71
2023/02/25 05:13:01;;;;;;;0.77;0.50;;;;;;;3.56;94.34;99214.81;5090219;29;20057;-71
2023/02/25 05:15:31;;;;;;;3.03;0.60;;;;;;;3.48;94.10;99222.78;5091503;29;20035;-71
2023/02/25 05:18:02;;;;;;;2.83;0.65;;;;;;;3.50;93.52;99218.44;5091259;29;20067;-70
2023/02/25 05:20:33;;;;;;;1.83;0.75;;;;;;;3.49;94.43;99224.47;5092956;29;20550;-71
2023/02/25 05:23:03;;;;;;;3.85;1.00;;;;;;;3.53;93.25;99218.34;5097060;29;20063;-72
2023/02/25 05:25:33;;;;;;;9.00;0.60;;;;;;;3.47;93.73;99225.41;5094325;29;20035;-72
2023/02/25 05:28:04;;;;;;;2.70;0.60;;;;;;;3.42;93.36;99227.28;5092924;29;20027;-71
2023/02/25 05:30:36;;;;;;;3.15;0.60;;;;;;;3.40;93.63;99234.22;5106770;29;20106;-71
2023/02/25 05:33:08;;;;;;;2.10;0.60;;;;;;;3.46;93.44;99231.47;5101674;29;20394;-72
2023/02/25 05:35:39;;;;;;;2.65;0.70;;;;;;;3.46;93.27;99234.03;5103613;29;20471;-71
2023/02/25 05:38:09;;;;;;;3.75;0.70;;;;;;;3.53;93.15;99235.59;5108071;29;20054;-71
2023/02/25 05:40:40;;;;;;;2.75;0.40;;;;;;;3.50;92.98;99236.50;5105286;29;20020;-72
2023/02/25 05:43:10;;;;;;;2.08;0.77;;;;;;;3.50;93.22;99241.66;5091999;29;20058;-71
2023/02/25 05:45:40;;;;;;;3.72;0.68;;;;;;;3.50;92.45;99236.50;5089484;29;20112;-71
2023/02/25 05:48:11;;;;;;;3.53;0.93;;;;;;;3.49;92.34;99242.56;5078883;29;20394;-71
2023/02/25 05:50:41;;;;;;;5.07;0.80;;;;;;;3.31;93.62;99245.66;5106139;29;20055;-73
2023/02/25 05:53:11;;;;;;;1.27;0.65;;;;;;;3.47;93.89;99248.66;5087184;29;20516;-70
2023/02/25 05:55:42;;;;;;;2.85;0.60;;;;;;;3.46;93.45;99259.88;5095228;29;20027;-71
2023/02/25 05:58:13;;;;;;;3.80;0.50;;;;;;;3.46;94.33;99259.88;5099953;29;20038;-72
2023/02/25 06:00:43;;;;;;;2.90;0.93;;;;;;;3.45;94.21;99263.34;5105661;29;20363;-71
2023/02/25 06:03:14;;;;;;;3.05;0.52;;;;;;;3.45;94.88;99268.50;5105306;29;20030;-71
2023/02/25 06:05:44;;;;;;;1.02;0.55;;;;;;;3.44;94.05;99266.81;5101927;29;20045;-71
2023/02/25 06:08:14;;;;;;;3.50;0.90;;;;;;;3.49;95.14;99275.25;5103393;29;20055;-71
2023/02/25 06:10:45;;;;;;;4.03;0.95;;;;;;;3.51;95.37;99281.25;5105194;29;20036;-71
2023/02/25 06:13:16;;;;;;;3.08;1.27;;;;;;;3.46;95.21;99283.09;5089621;29;20135;-72
2023/02/25 06:15:46;;;;;;;6.72;1.15;;;;;;;3.42;95.76;99287.53;5091766;29;20119;-71
2023/02/25 06:18:17;;;;;;;2.20;0.82;;;;;;;3.37;95.20;99291.94;5100707;29;20230;-71
2023/02/25 06:20:48;;;;;;;6.00;1.13;;;;;;;3.39;95.36;99291.91;5094453;29;20040;-71
2023/02/25 06:23:18;;;;;;;2.63;0.93;;;;;;;3.46;95.88;99296.00;5071075;29;20028;-71
2023/02/25 06:25:48;;;;;;;2.40;0.90;;;;;;;3.42;94.88;99305.59;5089952;29;20417;-71
2023/02/25 06:28:19;;;;;;;1.85;0.85;;;;;;;3.38;95.31;99305.72;5106295;29;20034;-71
2023/02/25 06:30:49;;;;;;;2.22;1.00;;;;;;;3.43;95.34;99312.47;5090397;29;20103;-71
2023/02/25 06:33:19;;;;;;;3.00;1.10;;;;;;;3.42;95.47;99317.66;5102004;29;20393;-71
2023/02/25 06:35:51;;;;;;;2.78;1.00;;;;;;;3.37;95.49;99322.94;5101252;29;20115;-71
2023/02/25 06:38:21;;;;;;;2.63;1.00;;;;;;;3.27;95.63;99326.66;5108071;29;20039;-71
2023/02/25 06:40:51;;;;;;;3.80;1.02;;;;;;;3.35;95.31;99329.03;5090690;29;20506;-71
2023/02/25 06:43:22;;;;;;;2.58;0.90;;;;;;;3.32;96.13;99327.38;5091020;29;20043;-70
2023/02/25 06:45:53;;;;;;;1.73;0.90;;;;;;;3.28;96.29;99337.81;5089654;29;20051;-71
2023/02/25 06:48:23;;;;;;;2.40;1.20;;;;;;;3.32;96.43;99339.41;5089079;29;20396;-71
2023/02/25 06:50:53;;;;;;;4.88;0.90;;;;;;;3.30;96.38;99343.78;5073771;29;20043;-71
2023/02/25 06:53:24;;;;;;;2.17;1.00;;;;;;;3.29;95.67;99349.84;5089557;29;20385;-71
2023/02/25 06:55:56;;;;;;;3.53;1.15;;;;;;;3.26;95.78;99360.25;5094632;29;20364;-71
2023/02/25 06:58:27;;;;;;;3.78;1.20;;;;;;;3.28;96.88;99366.22;5085466;29;20496;-71
2023/02/25 07:00:58;;;;;;;3.58;1.08;;;;;;;3.25;96.46;99389.53;5116603;23;20046;-73
2023/02/25 07:03:28;;;;;;;4.38;0.98;;;;;;;3.10;96.27;99388.19;5149078;28;20117;-74
2023/02/25 07:05:59;;;;;;;3.53;0.93;;;;;;;3.22;96.34;99384.44;5151920;28;20041;-72
2023/02/25 07:08:30;;;;;;;5.13;1.00;;;;;;;3.23;96.59;99391.31;5147298;28;20485;-72
2023/02/25 07:11:09;;;;;;;6.90;1.40;;;;;;;3.30;97.03;99390.25;5143484;28;20044;-73
2023/02/25 07:13:42;;;;;;;2.90;1.27;;;;;;;3.27;97.12;99390.31;5141019;28;20057;-75
2023/02/25 07:16:14;;;;;;;3.53;0.90;;;;;;;3.28;96.71;99399.75;5140729;28;20388;-73
2023/02/25 07:18:45;;;;;;;2.72;0.85;;;;;;;3.17;97.48;99405.19;5121474;28;20287;-73
2023/02/25 07:21:15;;;;;;;2.08;0.70;;;;;;;3.23;97.57;99401.63;5128000;28;20038;-72
2023/02/25 07:23:45;;;;;;;5.13;0.90;;;;;;;3.20;97.46;99412.03;5144709;28;20042;-68
2023/02/25 07:26:16;;;;;;;2.08;0.80;;;;;;;3.15;97.34;99416.44;5126374;28;20034;-75
2023/02/25 07:28:49;;;;;;;2.88;0.60;;;;;;;3.15;98.02;99409.56;5138835;28;20582;-72
2023/02/25 07:31:20;;;;;;;2.88;0.85;;;;;;;3.16;98.10;99418.16;5139365;28;20031;-72
2023/02/25 07:33:53;;;;;;;3.13;0.77;;;;;;;3.15;98.01;99419.88;5139424;28;20112;-73
2023/02/25 07:36:24;;;;;;;1.35;0.60;;;;;;;3.20;97.80;99418.03;5124309;28;20455;-74
2023/02/25 07:38:56;;;;;;;2.10;0.80;;;;;;;3.12;97.53;99419.97;5125095;28;20054;-75
2023/02/25 07:41:27;;;;;;;3.90;1.10;;;;;;;3.20;98.15;99432.69;5148102;28;20866;-74
2023/02/25 07:43:58;;;;;;;1.92;0.80;;;;;;;3.16;98.57;99424.16;5143709;28;20026;-72
2023/02/25 07:46:29;;;;;;;2.40;0.77;;;;;;;3.10;98.88;99431.19;5147232;28;20026;-74
2023/02/25 07:49:00;;;;;;;1.75;0.85;;;;;;;3.20;99.17;99428.34;5144202;28;20118;-73
2023/02/25 07:51:31;;;;;;;1.80;0.70;;;;;;;3.23;99.50;99436.00;5147238;28;20027;-74
2023/02/25 07:54:01;;;;;;;4.05;1.17;;;;;;;3.12;99.13;99450.06;5150916;28;20450;-74
2023/02/25 07:56:31;;;;;;;2.00;1.00;;;;;;;3.23;100.00;99437.75;5145879;28;20109;-72
2023/02/25 07:59:02;;;;;;;2.08;0.90;;;;;;;3.21;99.56;99449.84;5149164;28;20058;-75
2023/02/25 08:01:33;;;;;;;5.32;2.13;;;;;;;3.23;99.18;99442.91;5148915;28;20039;-73
2023/02/25 08:04:05;;;;;;;3.45;1.70;;;;;;;3.23;99.81;99453.25;5148673;28;20041;-74
2023/02/25 08:06:37;;;;;;;3.90;1.30;;;;;;;3.23;99.38;99455.81;5132492;28;20203;-74
2023/02/25 08:09:12;;;;;;;1.95;0.98;;;;;;;3.30;99.39;99452.19;5130622;28;20275;-75
2023/02/25 08:11:43;;;;;;;2.92;0.65;;;;;;;3.28;99.38;99453.97;5139603;28;20106;-73
2023/02/25 08:14:13;;;;;;;3.00;1.40;;;;;;;3.25;98.60;99474.69;5129502;28;20109;-75
2023/02/25 08:16:43;;;;;;;3.65;1.00;;;;;;;3.23;98.90;99463.56;5146724;28;20168;-73
2023/02/25 08:19:14;;;;;;;2.47;1.00;;;;;;;3.29;98.64;99468.56;5148309;28;20456;-74
2023/02/25 08:21:45;;;;;;;4.80;2.08;;;;;;;3.37;99.38;99470.09;5152785;28;20093;-74
2023/02/25 08:24:15;;;;;;;3.70;1.60;;;;;;;3.27;98.31;99478.09;5147389;28;20116;-73
2023/02/25 08:26:45;;;;;;;5.03;1.70;;;;;;;3.33;97.83;99470.22;5148931;28;20058;-73
2023/02/25 08:29:17;;;;;;;3.83;1.52;;;;;;;3.44;98.31;99478.53;5149004;28;20069;-74
2023/02/25 08:31:50;;;;;;;6.43;2.65;;;;;;;3.53;97.79;99473.16;5135210;28;20034;-73
2023/02/25 08:34:20;;;;;;;8.38;3.20;;;;;;;3.63;97.82;99465.13;5134913;28;20029;-75
2023/02/25 08:36:51;;;;;;;3.55;1.70;;;;;;;3.65;97.42;99471.09;5146502;28;20019;-73
2023/02/25 08:39:21;;;;;;;7.40;2.47;;;;;;;3.62;96.48;99469.44;5136901;28;20078;-73
2023/02/25 08:41:52;;;;;;;5.85;1.90;;;;;;;3.69;96.35;99481.31;5151764;28;20384;-75
2023/02/25 08:44:22;;;;;;;8.70;2.63;;;;;;;3.61;95.13;99478.06;5149476;28;20054;-74
2023/02/25 08:46:52;;;;;;;5.00;1.58;;;;;;;3.72;96.03;99485.53;5141692;28;20396;-74
2023/02/25 08:49:22;;;;;;;22.77;7.13;;;;;;;3.80;95.67;99487.03;5147183;28;20383;-73
2023/02/25 08:51:53;;;;;;;30.40;9.50;;;;;;;3.80;94.85;99479.28;5150113;28;20109;-73
2023/02/25 08:54:23;;;;;;;3.83;1.10;;;;;;;3.80;95.18;99484.44;5144747;28;20034;-72
2023/02/25 08:56:54;;;;;;;1.75;0.50;;;;;;;3.73;94.28;99482.94;5142824;28;20408;-74
2023/02/25 08:59:24;;;;;;;4.07;1.08;;;;;;;3.84;94.67;99488.69;5138964;28;20113;-74
2023/02/25 09:01:54;;;;;;;1.33;0.70;;;;;;;3.77;93.51;99489.72;5145887;28;20030;-75
2023/02/25 09:04:25;;;;;;;2.88;0.80;;;;;;;3.70;93.05;99495.06;5145882;28;20029;-72
2023/02/25 09:06:57;;;;;;;1.55;0.70;;;;;;;3.78;93.90;99491.41;5146493;28;20110;-74
2023/02/25 09:09:27;;;;;;;2.63;1.08;;;;;;;3.72;93.47;99494.16;5143427;28;20030;-73
2023/02/25 09:11:58;;;;;;;1.50;0.90;;;;;;;3.83;93.78;99512.81;5129075;28;20436;-73
2023/02/25 09:14:28;;;;;;;2.50;1.30;;;;;;;3.87;93.82;99514.44;5150312;28;20034;-73
2023/02/25 09:17:01;;;;;;;5.22;2.20;;;;;;;3.74;94.18;99520.78;5133237;28;20038;-74
2023/02/25 09:19:32;;;;;;;4.80;2.20;;;;;;;3.80;93.96;99519.78;5126820;28;20117;-76
2023/02/25 09:22:04;;;;;;;4.80;1.83;;;;;;;3.76;94.69;99524.19;5147043;28;20556;-72
2023/02/25 09:24:35;;;;;;;8.45;2.50;;;;;;;3.81;95.66;99526.66;5132020;28;20057;-74
2023/02/25 09:27:08;;;;;;;8.25;3.20;;;;;;;3.89;95.88;99529.88;5151338;28;20071;-76
2023/02/25 09:29:40;;;;;;;3.55;1.65;;;;;;;3.84;93.75;99527.44;5141408;28;20030;-72
2023/02/25 09:32:17;;;;;;;5.45;2.20;;;;;;;3.87;93.88;99534.25;5148621;28;20026;-73
2023/02/25 09:34:50;;;;;;;3.38;1.55;;;;;;;3.88;94.24;99534.22;5132290;28;20050;-73
2023/02/25 09:37:20;;;;;;;5.40;2.20;;;;;;;3.82;94.52;99539.50;5149759;28;20034;-74
2023/02/25 09:39:51;;;;;;;4.38;1.80;;;;;;;3.78;94.16;99548.25;5148583;28;20026;-73
2023/02/25 09:42:26;;;;;;;5.82;2.85;;;;;;;3.77;93.99;99550.88;5131493;28;20492;-72
2023/02/25 09:45:00;;;;;;;2.25;1.40;;;;;;;3.87;94.13;99552.31;5149824;28;20050;-75
2023/02/25 09:47:53;;;;;;;6.33;2.00;;;;;;;3.77;93.30;99551.72;5149805;28;20039;-73
2023/02/25 09:50:34;;;;;;;2.00;0.95;;;;;;;3.65;94.15;99554.59;5128993;28;20109;-75
2023/02/25 09:53:14;;;;;;;2.47;0.70;;;;;;;3.67;95.25;99559.72;5145303;28;20137;-75
2023/02/25 09:55:50;;;;;;;1.60;0.68;;;;;;;3.79;95.73;99572.34;5137477;28;20099;-76
2023/02/25 09:58:43;;;;;;;2.90;0.93;;;;;;;3.89;96.02;99572.09;5129561;28;20499;-75
2023/02/25 10:01:20;;;;;;;4.03;0.98;;;;;;;3.84;96.65;99579.13;5149700;28;20503;-74
2023/02/25 10:04:12;;;;;;;1.60;0.90;;;;;;;3.73;96.45;99575.94;5139374;28;20038;-74
2023/02/25 10:06:46;;;;;;;1.20;0.50;;;;;;;3.71;97.23;99588.03;5149105;28;20507;-72
2023/02/25 10:09:55;;;;;;;0.65;0.47;;;;;;;3.83;99.24;99594.63;5130970;28;20030;-73
2023/02/25 10:12:44;;;;;;;2.90;0.50;;;;;;;3.71;99.93;99593.22;5132465;28;20481;-73
2023/02/25 10:15:30;;;;;;;1.48;0.60;;;;;;;3.64;100.00;99601.97;5147487;28;20089;-75
2023/02/25 10:18:10;;;;;;;1.33;0.60;;;;;;;3.56;100.00;99597.88;5147244;28;20419;-74
2023/02/25 10:21:09;;;;;;;2.25;0.55;;;;;;;3.57;99.81;99609.88;5123297;28;20046;-74
2023/02/25 10:23:52;;;;;;;2.38;0.57;;;;;;;3.67;100.00;99622.59;5137027;28;20138;-74
2023/02/25 10:26:28;;;;;;;2.63;0.57;;;;;;;3.69;100.00;99618.22;5125268;28;20023;-73
2023/02/25 10:29:05;;;;;;;2.33;0.77;;;;;;;3.78;100.00;99625.75;5126761;28;20030;-73
2023/02/25 10:31:38;;;;;;;2.22;0.80;;;;;;;3.83;100.00;99629.09;5143362;28;20088;-75
2023/02/25 10:34:24;;;;;;;2.08;0.50;;;;;;;3.88;99.66;99629.81;5129859;28;20046;-74
2023/02/25 10:36:58;;;;;;;2.47;0.50;;;;;;;4.01;97.17;99641.56;5144570;28;20615;-73
2023/02/25 10:39:30;;;;;;;1.02;0.57;;;;;;;4.19;94.75;99628.19;5139850;28;20030;-73
2023/02/25 10:42:00;;;;;;;1.23;0.40;;;;;;;4.35;94.75;99637.25;5123417;28;20162;-74
2023/02/25 10:44:30;;;;;;;2.13;0.65;;;;;;;4.51;92.39;99635.09;5143455;28;20584;-71
2023/02/25 10:47:05;;;;;;;1.33;0.55;;;;;;;4.52;90.71;99632.50;5137719;28;20026;-72
2023/02/25 10:49:37;;;;;;;1.35;0.47;;;;;;;4.28;90.73;99627.94;5140200;28;20384;-73
2023/02/25 10:52:16;;;;;;;0.95;0.32;;;;;;;4.48;91.17;99641.19;5143291;28;20069;-74
2023/02/25 10:54:49;;;;;;;1.52;0.63;;;;;;;4.55;89.57;99637.59;5126738;28;20031;-73
2023/02/25 10:57:26;;;;;;;1.83;0.30;;;;;;;4.58;89.79;99641.81;5124340;28;20027;-73
2023/02/25 11:00:03;;;;;;;1.10;0.52;;;;;;;4.57;89.51;99643.56;5137058;28;20019;-75
2023/02/25 11:02:41;;;;;;;5.63;0.60;;;;;;;4.44;89.05;99649.94;5143223;28;20031;-73
2023/02/25 11:05:37;;;;;;;3.00;1.30;;;;;;;4.38;87.93;99655.28;5145579;28;20029;-72
2023/02/25 11:08:28;;;;;;;;;;;;;;;4.44;86.67;99659.44;5139174;28;20055;-73
2023/02/25 11:11:22;;;;;;;4.63;0.43;;;;;;;4.55;85.33;99655.69;5144124;28;19922;-74
2023/02/25 11:14:05;;;;;;;0.85;0.40;;;;;;;4.59;84.98;99666.78;5144500;28;20067;-74
2023/02/25 11:16:38;;;;;;;1.42;0.60;;;;;;;4.57;85.13;99666.84;5123673;28;20023;-73
2023/02/25 11:19:31;;;;;;;7.53;2.70;;;;;;;4.81;85.61;99668.75;5147195;28;20117;-74
2023/02/25 11:22:09;;;;;;;1.35;0.85;;;;;;;4.74;84.47;99671.56;5144226;28;20046;-73
2023/02/25 11:24:41;;;;;;;1.52;0.50;;;;;;;4.56;86.98;99683.25;5144306;28;20468;-73
2023/02/25 11:27:36;;;;;;;0.85;0.40;;;;;;;4.16;91.50;99690.28;5143795;28;20114;-75
2023/02/25 11:30:12;;;;;;;3.00;0.90;;;;;;;4.15;93.41;99698.09;5154017;28;20093;-72
2023/02/25 11:32:47;;;;;;;2.22;0.90;;;;;;;3.96;92.62;99697.66;5154367;28;20033;-75
2023/02/25 11:35:29;;;;;;;2.58;0.80;;;;;;;4.05;94.20;99697.47;5132106;28;20058;-74
2023/02/25 11:38:27;;;;;;;0.77;0.50;;;;;;;4.01;94.17;99695.84;5153259;28;20255;-72
2023/02/25 11:40:58;;;;;;;1.50;0.50;;;;;;;3.92;93.17;99705.56;5149526;28;20527;-73
2023/02/25 11:43:39;;;;;;;1.95;0.70;;;;;;;4.06;92.22;99708.63;5148858;28;20105;-74
2023/02/25 11:46:16;;;;;;;2.55;0.80;;;;;;;4.41;91.37;99700.88;5149639;28;20566;-71
2023/02/25 11:49:12;;;;;;;2.40;0.70;;;;;;;4.64;90.22;99696.81;5134915;28;20050;-73
2023/02/25 11:51:58;;;;;;;1.90;0.68;;;;;;;4.82;90.36;99704.09;5151134;28;20224;-74
2023/02/25 11:55:11;;;;;;;4.53;1.08;;;;;;;4.93;88.74;99706.41;5143068;28;20056;-75
2023/02/25 11:58:02;;;;;;;1.58;0.90;;;;;;;4.56;88.10;99711.72;5141056;28;20114;-74
2023/02/25 12:00:53;;;;;;;2.25;0.90;;;;;;;4.22;88.38;99718.59;5145846;28;20132;-73
2023/02/25 12:03:45;;;;;;;0.98;0.60;;;;;;;4.30;89.62;99716.66;5145520;28;20026;-73
2023/02/25 12:06:40;;;;;;;2.38;0.60;;;;;;;4.30;89.88;99719.25;5146448;28;20026;-74
2023/02/25 12:09:23;;;;;;;1.88;0.88;;;;;;;4.31;89.79;99722.69;5112241;28;20438;-76
2023/02/25 12:12:05;;;;;;;2.83;0.68;;;;;;;4.17;92.05;99727.34;5143072;28;20162;-75
2023/02/25 12:14:44;;;;;;;1.85;0.77;;;;;;;3.97;94.74;99725.22;5149180;28;20030;-74